Time;durP1;ratioP1;P1;durP2;ratioP2;P2;SDS_P1;SDS_P2;PMS_P1;PMS_P2;Temp;Humidity;BMP_temperature;BMP_pressure;BME280_temperature;BME280_humidity;BME280_pressure;Samples;Min_cycle;Max_cycle;Signal;HPM_P1;HPM_P2
2023/12/24 00:01:06;;;;;;;13.85;3.13;;;8.80;99.90;;;;;;4836201;29;20404;-85
2023/12/24 00:03:33;;;;;;;13.10;3.47;;;8.80;99.90;;;;;;4852271;29;20586;-87
2023/12/24 00:05:59;;;;;;;16.85;3.85;;;8.80;99.90;;;;;;4832994;29;20054;-87
2023/12/24 00:08:28;;;;;;;17.38;3.70;;;8.90;99.90;;;;;;4836466;29;20056;-86
2023/12/24 00:10:55;;;;;;;15.32;3.70;;;8.90;99.90;;;;;;4836227;29;20117;-88
2023/12/24 00:13:21;;;;;;;15.25;3.60;;;8.90;99.90;;;;;;4836631;29;20062;-87
2023/12/24 00:15:46;;;;;;;13.18;3.17;;;8.90;99.90;;;;;;4837273;29;20053;-86
2023/12/24 00:18:12;;;;;;;12.48;3.60;;;8.90;99.90;;;;;;4836343;29;20176;-87
2023/12/24 00:20:37;;;;;;;12.32;3.80;;;8.90;99.90;;;;;;4835696;29;20038;-86
2023/12/24 00:23:05;;;;;;;16.08;3.53;;;8.90;99.90;;;;;;4833832;29;20071;-87
2023/12/24 00:25:31;;;;;;;13.38;3.53;;;8.90;99.90;;;;;;4834728;29;20062;-88
2023/12/24 00:27:58;;;;;;;13.52;3.60;;;8.90;99.90;;;;;;4835509;29;20053;-87
2023/12/24 00:30:26;;;;;;;13.40;3.40;;;8.90;99.90;;;;;;4836035;29;20136;-87
2023/12/24 00:32:56;;;;;;;14.02;3.70;;;8.90;99.90;;;;;;4834376;29;20046;-86
2023/12/24 00:35:22;;;;;;;17.23;4.38;;;8.90;99.90;;;;;;4835800;29;20113;-85
2023/12/24 00:37:49;;;;;;;11.25;3.30;;;9.00;99.90;;;;;;4836129;29;20058;-86
2023/12/24 00:40:15;;;;;;;9.95;2.97;;;9.00;99.90;;;;;;4835766;29;20362;-85
2023/12/24 00:42:42;;;;;;;11.00;3.50;;;9.00;99.90;;;;;;4836355;29;20046;-85
2023/12/24 00:45:13;;;;;;;14.73;3.67;;;8.90;99.90;;;;;;4833492;29;20058;-87
2023/12/24 00:47:39;;;;;;;12.27;3.42;;;8.90;99.90;;;;;;4840717;29;20057;-86
2023/12/24 00:50:06;;;;;;;12.32;3.30;;;9.00;99.90;;;;;;4841905;29;20122;-86
2023/12/24 00:52:32;;;;;;;15.70;3.72;;;8.90;99.90;;;;;;4857672;29;20054;-87
2023/12/24 00:54:58;;;;;;;10.63;3.25;;;8.90;99.90;;;;;;4837275;29;20081;-86
2023/12/24 00:57:24;;;;;;;12.63;3.53;;;9.00;99.90;;;;;;4842305;29;20061;-87
2023/12/24 00:59:49;;;;;;;13.25;2.92;;;9.00;99.90;;;;;;4840909;29;20106;-86
2023/12/24 01:02:15;;;;;;;17.08;3.20;;;8.90;99.90;;;;;;4841942;29;20054;-86
2023/12/24 01:04:40;;;;;;;15.43;3.22;;;8.90;99.90;;;;;;4842547;29;20046;-86
2023/12/24 01:07:06;;;;;;;16.73;2.97;;;8.90;99.90;;;;;;4838396;29;20403;-86
2023/12/24 01:09:32;;;;;;;11.82;3.08;;;8.90;99.90;;;;;;4841812;29;20049;-86
2023/12/24 01:11:57;;;;;;;13.05;2.92;;;8.90;99.90;;;;;;4829510;29;20053;-86
2023/12/24 01:14:23;;;;;;;11.82;3.15;;;8.90;99.90;;;;;;4842075;29;20046;-85
2023/12/24 01:16:49;;;;;;;14.00;3.33;;;8.90;99.90;;;;;;4838368;29;20046;-86
2023/12/24 01:19:14;;;;;;;15.00;3.00;;;8.90;99.90;;;;;;4857626;29;20098;-87
2023/12/24 01:21:40;;;;;;;10.15;2.80;;;8.90;99.90;;;;;;4840590;29;20096;-85
2023/12/24 01:24:06;;;;;;;7.15;2.53;;;8.90;99.90;;;;;;4840511;29;20056;-88
2023/12/24 01:26:34;;;;;;;12.05;3.20;;;8.90;99.90;;;;;;4841776;29;20058;-85
2023/12/24 01:29:00;;;;;;;12.70;2.80;;;8.90;99.90;;;;;;4841982;29;20062;-86
2023/12/24 01:31:27;;;;;;;13.02;3.50;;;9.00;99.90;;;;;;4842029;29;20563;-86
2023/12/24 01:33:53;;;;;;;12.88;3.25;;;9.00;99.90;;;;;;4841284;29;20779;-86
2023/12/24 01:36:19;;;;;;;13.88;3.22;;;8.90;99.90;;;;;;4839103;29;20160;-87
2023/12/24 01:38:45;;;;;;;12.25;3.28;;;9.30;99.90;;;;;;4842353;29;20050;-88
2023/12/24 01:41:12;;;;;;;13.05;2.33;;;8.90;99.90;;;;;;4841497;29;20054;-87
2023/12/24 01:43:40;;;;;;;11.93;2.80;;;8.90;99.90;;;;;;4841705;29;20061;-88
2023/12/24 01:46:06;;;;;;;9.00;2.38;;;8.90;99.90;;;;;;4838992;29;20107;-86
2023/12/24 01:48:31;;;;;;;10.48;2.60;;;8.90;99.90;;;;;;4823848;29;20054;-86
2023/12/24 01:51:00;;;;;;;10.00;2.50;;;8.90;99.90;;;;;;4840133;29;20677;-86
2023/12/24 01:53:26;;;;;;;9.73;2.40;;;8.90;99.90;;;;;;4841602;29;20404;-87
2023/12/24 01:55:52;;;;;;;12.38;2.28;;;8.90;99.90;;;;;;4841887;29;20050;-89
2023/12/24 01:58:19;;;;;;;10.35;2.25;;;9.40;99.90;;;;;;4839195;29;20073;-85
2023/12/24 02:00:46;;;;;;;11.05;2.30;;;8.90;99.90;;;;;;4839068;29;20179;-86
2023/12/24 02:03:12;;;;;;;8.52;2.17;;;8.90;99.90;;;;;;4838571;29;20053;-86
2023/12/24 02:05:40;;;;;;;9.80;2.17;;;8.90;99.90;;;;;;4839366;29;20049;-87
2023/12/24 02:08:07;;;;;;;13.23;2.40;;;8.90;99.90;;;;;;4837902;29;20053;-85
2023/12/24 02:10:33;;;;;;;5.43;2.00;;;8.90;99.90;;;;;;4839120;29;20215;-86
2023/12/24 02:12:59;;;;;;;8.15;2.45;;;8.90;99.90;;;;;;4838704;29;20168;-85
2023/12/24 02:15:24;;;;;;;6.93;2.40;;;8.90;99.90;;;;;;4839210;29;20050;-88
2023/12/24 02:17:51;;;;;;;5.82;2.00;;;8.90;99.90;;;;;;4839379;29;20511;-86
2023/12/24 02:20:22;;;;;;;8.38;2.22;;;8.90;99.90;;;;;;4838291;29;20397;-87
2023/12/24 02:22:48;;;;;;;7.57;2.55;;;8.90;99.90;;;;;;4838004;29;20149;-87
2023/12/24 02:25:14;;;;;;;7.78;2.55;;;8.90;99.90;;;;;;4837844;29;20250;-85
2023/12/24 02:27:55;;;;;;;10.90;2.42;;;9.10;99.90;;;;;;4837757;29;20072;-88
2023/12/24 02:30:26;;;;;;;5.35;2.30;;;8.90;99.90;;;;;;4839069;29;20120;-86
2023/12/24 02:32:58;;;;;;;7.37;2.30;;;8.90;99.90;;;;;;4838693;29;20049;-87
2023/12/24 02:35:29;;;;;;;5.35;2.50;;;9.00;99.90;;;;;;4838583;29;20399;-86
2023/12/24 02:37:54;;;;;;;7.95;2.40;;;9.00;99.90;;;;;;4836888;29;20053;-89
2023/12/24 02:40:20;;;;;;;10.68;2.97;;;9.00;99.90;;;;;;4837388;29;20398;-85
2023/12/24 02:42:45;;;;;;;8.73;2.75;;;9.00;99.90;;;;;;4837757;29;20232;-86
2023/12/24 02:45:11;;;;;;;5.47;2.53;;;9.00;99.90;;;;;;4822098;29;20497;-88
2023/12/24 02:47:37;;;;;;;8.35;2.42;;;9.00;99.90;;;;;;4836976;29;20053;-85
2023/12/24 02:50:04;;;;;;;11.65;2.70;;;8.90;99.90;;;;;;4836682;29;20334;-85
2023/12/24 02:52:29;;;;;;;8.00;3.03;;;9.00;99.90;;;;;;4827420;29;20097;-88
2023/12/24 02:54:56;;;;;;;5.30;2.28;;;8.90;99.90;;;;;;4838982;29;20045;-89
2023/12/24 02:57:22;;;;;;;5.38;2.30;;;9.10;99.90;;;;;;4837892;29;20046;-87
2023/12/24 02:59:47;;;;;;;5.38;2.20;;;8.90;99.90;;;;;;4804879;29;20157;-86
2023/12/24 03:02:13;;;;;;;5.20;2.22;;;9.00;99.90;;;;;;4837278;29;20141;-86
2023/12/24 03:04:39;;;;;;;5.40;2.38;;;9.00;99.90;;;;;;4838392;29;20045;-89
2023/12/24 03:07:05;;;;;;;6.60;2.28;;;8.90;99.90;;;;;;4838398;29;20053;-88
2023/12/24 03:09:32;;;;;;;5.32;2.15;;;9.00;99.90;;;;;;4826889;29;20050;-89
2023/12/24 03:11:59;;;;;;;7.28;2.35;;;9.00;99.90;;;;;;4833930;29;20070;-87
2023/12/24 03:14:24;;;;;;;7.22;2.20;;;8.90;99.90;;;;;;4838185;29;20080;-85
2023/12/24 03:16:50;;;;;;;5.50;2.30;;;9.00;99.90;;;;;;4838429;29;20065;-88
2023/12/24 03:19:15;;;;;;;6.78;2.53;;;9.00;99.90;;;;;;4834268;29;20046;-87
2023/12/24 03:21:42;;;;;;;5.85;2.60;;;9.00;99.90;;;;;;4836266;29;20058;-86
2023/12/24 03:24:08;;;;;;;4.38;2.35;;;9.00;99.90;;;;;;4837429;29;20050;-86
2023/12/24 03:26:34;;;;;;;5.22;2.30;;;9.00;99.90;;;;;;4837121;29;20050;-88
2023/12/24 03:29:02;;;;;;;5.18;2.33;;;8.90;99.90;;;;;;4837622;29;20042;-88
2023/12/24 03:31:28;;;;;;;6.03;2.33;;;9.00;99.90;;;;;;4837934;29;20045;-89
2023/12/24 03:33:54;;;;;;;4.47;2.15;;;8.90;99.90;;;;;;4849393;29;20130;-87
2023/12/24 03:36:20;;;;;;;6.78;1.90;;;9.00;99.90;;;;;;4827902;29;20145;-88
2023/12/24 03:38:45;;;;;;;3.80;2.10;;;9.00;99.90;;;;;;4836927;29;20842;-87
2023/12/24 03:41:11;;;;;;;5.78;2.40;;;9.00;99.90;;;;;;4835518;29;20175;-88
2023/12/24 03:43:37;;;;;;;5.13;2.10;;;9.00;99.90;;;;;;4837400;29;20102;-88
2023/12/24 03:46:03;;;;;;;5.63;2.30;;;9.00;99.90;;;;;;4849981;29;20055;-90
2023/12/24 03:48:33;;;;;;;4.18;2.38;;;9.00;99.90;;;;;;4835648;29;20046;-88
2023/12/24 03:50:59;;;;;;;7.32;2.28;;;9.00;99.90;;;;;;4822571;29;20512;-86
2023/12/24 03:53:24;;;;;;;7.70;2.38;;;9.10;99.90;;;;;;4836403;29;20053;-86
2023/12/24 03:55:50;;;;;;;6.28;2.35;;;9.00;99.90;;;;;;4837083;29;20394;-87
2023/12/24 03:58:16;;;;;;;3.47;2.20;;;9.10;99.90;;;;;;4837443;29;20053;-87
2023/12/24 04:00:41;;;;;;;4.55;2.38;;;9.10;99.90;;;;;;4836845;29;20262;-87
2023/12/24 04:03:07;;;;;;;5.47;2.53;;;9.00;99.90;;;;;;4832211;29;20172;-87
2023/12/24 04:05:32;;;;;;;4.03;1.90;;;9.10;99.90;;;;;;4831117;29;20157;-86
2023/12/24 04:07:59;;;;;;;4.65;1.80;;;9.80;99.90;;;;;;4837001;29;20056;-85
2023/12/24 04:10:25;;;;;;;7.32;1.90;;;9.10;99.90;;;;;;4837257;29;20081;-88
2023/12/24 04:12:50;;;;;;;2.88;2.03;;;9.00;99.90;;;;;;4848701;29;20077;-87
2023/12/24 04:15:16;;;;;;;2.65;1.77;;;9.10;99.90;;;;;;4836537;29;20057;-86
2023/12/24 04:17:41;;;;;;;4.22;1.88;;;9.10;99.90;;;;;;4835935;29;20081;-85
2023/12/24 04:20:07;;;;;;;5.20;1.73;;;9.10;99.90;;;;;;4836199;29;20568;-86
2023/12/24 04:22:33;;;;;;;3.35;1.60;;;9.10;99.90;;;;;;4850011;29;20057;-85
2023/12/24 04:24:59;;;;;;;3.42;1.50;;;9.10;99.90;;;;;;4835122;29;20365;-87
2023/12/24 04:27:25;;;;;;;3.58;1.52;;;9.10;99.90;;;;;;4835402;29;20232;-86
2023/12/24 04:29:51;;;;;;;2.67;1.33;;;9.10;99.90;;;;;;4836328;29;20050;-85
2023/12/24 04:32:18;;;;;;;2.45;1.30;;;9.10;99.90;;;;;;4848960;29;20184;-86
2023/12/24 04:34:44;;;;;;;3.33;1.42;;;9.40;99.90;;;;;;4820374;29;20077;-87
2023/12/24 04:37:10;;;;;;;2.72;1.70;;;9.10;99.90;;;;;;4820500;29;20054;-86
2023/12/24 04:39:36;;;;;;;2.72;1.58;;;9.20;99.90;;;;;;4836232;29;20133;-87
2023/12/24 04:42:01;;;;;;;3.05;1.55;;;9.20;99.90;;;;;;4835188;29;20144;-86
2023/12/24 04:44:27;;;;;;;3.03;1.50;;;9.20;99.90;;;;;;4832512;29;20078;-85
2023/12/24 04:46:52;;;;;;;3.88;1.42;;;9.20;99.90;;;;;;4835569;29;20069;-85
2023/12/24 04:49:19;;;;;;;5.13;1.50;;;9.20;99.90;;;;;;4836672;29;20054;-87
2023/12/24 04:51:45;;;;;;;4.68;1.60;;;9.20;99.90;;;;;;4835375;29;20137;-85
2023/12/24 04:54:11;;;;;;;4.25;1.55;;;9.20;99.90;;;;;;4835403;29;20088;-85
2023/12/24 04:56:36;;;;;;;4.95;1.55;;;9.20;99.90;;;;;;4836229;29;20073;-86
2023/12/24 04:59:02;;;;;;;4.45;1.63;;;9.60;99.90;;;;;;4835513;29;20065;-86
2023/12/24 05:01:28;;;;;;;2.00;1.73;;;9.30;99.90;;;;;;4836075;29;20046;-85
2023/12/24 05:03:53;;;;;;;3.35;1.80;;;9.30;99.90;;;;;;4833047;29;20050;-85
2023/12/24 05:06:19;;;;;;;3.40;1.95;;;9.30;99.90;;;;;;4819020;29;20047;-85
2023/12/24 05:08:45;;;;;;;3.25;1.90;;;9.30;99.90;;;;;;4828491;29;20050;-85
2023/12/24 05:11:11;;;;;;;2.35;1.55;;;9.40;99.90;;;;;;4835619;29;20824;-85
2023/12/24 05:13:37;;;;;;;2.13;1.63;;;9.40;99.90;;;;;;4835679;29;20054;-87
2023/12/24 05:16:03;;;;;;;4.22;1.70;;;9.40;99.90;;;;;;4835620;29;20179;-88
2023/12/24 05:18:30;;;;;;;3.35;2.05;;;9.40;99.90;;;;;;4835645;29;20050;-88
2023/12/24 05:20:56;;;;;;;3.33;1.95;;;9.40;99.90;;;;;;4835746;29;20501;-86
2023/12/24 05:23:21;;;;;;;2.50;2.00;;;9.40;99.90;;;;;;4835221;29;20056;-87
2023/12/24 05:25:47;;;;;;;4.72;2.10;;;9.40;99.90;;;;;;4836373;29;20045;-86
2023/12/24 05:28:13;;;;;;;5.60;2.17;;;9.40;99.90;;;;;;4835951;29;20077;-87
2023/12/24 05:30:39;;;;;;;2.95;1.88;;;9.40;99.90;;;;;;4835453;29;20054;-87
2023/12/24 05:33:04;;;;;;;4.15;1.85;;;9.40;99.90;;;;;;4836844;29;20053;-85
2023/12/24 05:35:30;;;;;;;4.03;2.00;;;9.40;99.90;;;;;;4840538;29;20338;-88
2023/12/24 05:37:55;;;;;;;3.40;1.90;;;9.50;99.90;;;;;;4844156;29;20099;-87
2023/12/24 05:40:21;;;;;;;3.60;1.80;;;9.40;99.90;;;;;;4838888;29;20421;-86
2023/12/24 05:42:47;;;;;;;3.22;2.25;;;9.50;99.90;;;;;;4838014;29;20050;-85
2023/12/24 05:45:12;;;;;;;3.75;1.95;;;9.50;99.90;;;;;;4837478;29;20053;-86
2023/12/24 05:47:38;;;;;;;4.13;2.05;;;9.50;99.90;;;;;;4838043;29;20046;-86
2023/12/24 05:50:05;;;;;;;4.25;2.13;;;9.50;99.90;;;;;;4838299;29;20057;-86
2023/12/24 05:52:31;;;;;;;4.25;2.28;;;9.50;99.90;;;;;;4839457;29;20524;-89
2023/12/24 05:54:57;;;;;;;3.90;2.33;;;9.60;99.90;;;;;;4838175;29;20046;-86
2023/12/24 05:57:22;;;;;;;6.32;2.70;;;9.60;99.90;;;;;;4838486;29;20042;-87
2023/12/24 05:59:48;;;;;;;6.05;2.30;;;9.60;99.90;;;;;;4838028;29;20053;-86
2023/12/24 06:02:14;;;;;;;6.45;2.70;;;9.60;99.90;;;;;;4838715;29;20041;-86
2023/12/24 06:04:39;;;;;;;6.53;2.80;;;9.60;99.90;;;;;;4838099;29;20232;-87
2023/12/24 06:07:05;;;;;;;5.85;2.45;;;9.60;99.90;;;;;;4839029;29;20046;-88
2023/12/24 06:09:31;;;;;;;6.55;2.70;;;9.60;99.90;;;;;;4835281;29;20061;-86
2023/12/24 06:11:57;;;;;;;5.45;2.70;;;9.70;99.90;;;;;;4837646;29;20053;-86
2023/12/24 06:14:22;;;;;;;8.23;3.10;;;9.70;99.90;;;;;;4824092;29;20049;-86
2023/12/24 06:16:48;;;;;;;6.85;3.20;;;9.70;99.90;;;;;;4838337;29;20469;-86
2023/12/24 06:19:13;;;;;;;9.30;3.65;;;9.60;99.90;;;;;;4837773;29;20101;-86
2023/12/24 06:21:39;;;;;;;8.15;3.70;;;9.70;99.90;;;;;;4839073;29;20164;-86
2023/12/24 06:24:05;;;;;;;11.90;3.85;;;9.70;99.90;;;;;;4838070;29;20461;-87
2023/12/24 06:26:33;;;;;;;5.30;3.00;;;9.80;99.90;;;;;;4838597;29;20060;-87
2023/12/24 06:28:59;;;;;;;14.10;3.80;;;10.00;99.90;;;;;;4837785;29;20081;-88
2023/12/24 06:31:25;;;;;;;9.60;3.80;;;9.80;99.90;;;;;;4839302;29;20084;-86
2023/12/24 06:33:51;;;;;;;11.50;4.00;;;9.80;99.90;;;;;;4838731;29;20046;-87
2023/12/24 06:36:17;;;;;;;12.98;3.95;;;10.00;99.90;;;;;;4838107;29;20254;-87
2023/12/24 06:38:43;;;;;;;9.43;5.07;;;9.80;99.90;;;;;;4837651;29;20421;-86
2023/12/24 06:41:09;;;;;;;11.77;4.40;;;9.80;99.90;;;;;;4837763;29;20054;-86
2023/12/24 06:43:38;;;;;;;11.05;4.10;;;9.80;99.90;;;;;;4838045;29;20576;-84
2023/12/24 06:46:06;;;;;;;10.00;4.57;;;9.80;99.90;;;;;;4836999;29;20121;-88
2023/12/24 06:48:32;;;;;;;13.85;5.18;;;9.80;99.90;;;;;;4837196;29;20073;-86
2023/12/24 06:50:58;;;;;;;16.60;5.13;;;10.10;99.90;;;;;;4837846;29;20790;-87
2023/12/24 06:53:24;;;;;;;12.27;5.32;;;9.80;99.90;;;;;;4836060;29;20061;-85
2023/12/24 06:55:50;;;;;;;20.48;4.97;;;9.80;99.90;;;;;;4856339;29;20057;-85
2023/12/24 06:58:15;;;;;;;17.10;5.40;;;9.80;99.90;;;;;;4845081;29;20053;-87
2023/12/24 07:00:41;;;;;;;16.40;6.28;;;9.90;99.90;;;;;;4836087;29;20046;-87
2023/12/24 07:03:07;;;;;;;14.00;5.18;;;9.90;99.90;;;;;;4841165;29;20061;-85
2023/12/24 07:05:34;;;;;;;17.75;5.63;;;10.00;99.90;;;;;;4830580;29;20050;-87
2023/12/24 07:08:00;;;;;;;15.25;6.03;;;10.70;99.90;;;;;;4839212;29;20633;-86
2023/12/24 07:10:26;;;;;;;21.73;5.63;;;9.90;99.90;;;;;;4835510;29;20061;-85
2023/12/24 07:12:51;;;;;;;18.20;5.15;;;9.90;99.90;;;;;;4833707;29;20054;-87
2023/12/24 07:15:17;;;;;;;15.77;5.30;;;9.90;99.90;;;;;;4847602;29;20073;-87
2023/12/24 07:17:43;;;;;;;23.02;5.88;;;10.00;99.90;;;;;;4835378;29;20443;-86
2023/12/24 07:20:09;;;;;;;18.38;6.05;;;10.20;99.90;;;;;;4837806;29;20061;-87
2023/12/24 07:22:36;;;;;;;14.70;5.47;;;10.00;99.90;;;;;;4835931;29;20399;-87
2023/12/24 07:25:01;;;;;;;20.75;5.90;;;10.00;99.90;;;;;;4837317;29;20046;-85
2023/12/24 07:27:27;;;;;;;12.52;5.70;;;10.00;99.90;;;;;;4836776;29;20050;-87
2023/12/24 07:29:53;;;;;;;17.13;5.65;;;10.00;99.90;;;;;;4822534;29;20046;-87
2023/12/24 07:32:18;;;;;;;19.83;6.03;;;10.00;99.90;;;;;;4837235;29;20106;-86
2023/12/24 07:34:44;;;;;;;19.48;6.05;;;10.00;99.90;;;;;;4837829;29;20081;-86
2023/12/24 07:37:10;;;;;;;15.20;5.75;;;10.00;99.90;;;;;;4834019;29;20085;-86
2023/12/24 07:39:35;;;;;;;12.93;4.95;;;10.10;99.90;;;;;;4837685;29;20615;-86
2023/12/24 07:42:02;;;;;;;15.52;5.88;;;10.10;99.90;;;;;;4837555;29;20145;-87
2023/12/24 07:44:27;;;;;;;16.75;5.53;;;10.10;99.90;;;;;;4836881;29;20050;-84
2023/12/24 07:46:53;;;;;;;15.90;5.55;;;10.20;99.90;;;;;;4837518;29;20050;-86
2023/12/24 07:49:19;;;;;;;15.95;5.57;;;10.20;99.90;;;;;;4856076;29;20412;-88
2023/12/24 07:51:47;;;;;;;17.95;4.97;;;10.20;99.90;;;;;;4845367;29;20146;-88
2023/12/24 07:54:13;;;;;;;18.00;5.43;;;10.20;99.90;;;;;;4837976;29;20050;-88
2023/12/24 07:56:38;;;;;;;16.88;5.55;;;10.20;99.90;;;;;;4837400;29;20045;-86
2023/12/24 07:59:04;;;;;;;16.88;5.03;;;10.20;99.90;;;;;;4826386;29;20055;-87
2023/12/24 08:01:30;;;;;;;14.05;5.40;;;10.20;99.90;;;;;;4825925;29;20046;-88
2023/12/24 08:03:55;;;;;;;19.02;6.07;;;10.30;99.90;;;;;;4851572;29;20046;-89
2023/12/24 08:06:21;;;;;;;15.32;5.13;;;10.40;99.90;;;;;;4848240;29;20054;-89
2023/12/24 08:08:47;;;;;;;17.15;5.05;;;10.30;99.90;;;;;;4833973;29;20042;-90
2023/12/24 08:11:13;;;;;;;18.05;5.32;;;10.40;99.90;;;;;;4816037;29;20042;-88
2023/12/24 08:13:41;;;;;;;18.58;5.63;;;10.30;99.90;;;;;;4849340;29;20041;-90
2023/12/24 08:16:07;;;;;;;17.25;5.20;;;10.30;99.90;;;;;;4853186;29;20046;-87
2023/12/24 08:18:33;;;;;;;19.45;5.25;;;10.30;99.90;;;;;;4833458;29;20055;-86
2023/12/24 08:20:59;;;;;;;24.88;5.85;;;10.30;99.90;;;;;;4848862;29;20461;-86
2023/12/24 08:23:25;;;;;;;21.20;4.80;;;10.30;99.90;;;;;;4851590;29;20529;-86
2023/12/24 08:25:51;;;;;;;15.88;5.10;;;10.30;99.90;;;;;;4836254;29;20049;-86
2023/12/24 08:28:16;;;;;;;18.67;4.85;;;10.40;99.90;;;;;;4836510;29;20134;-86
2023/12/24 08:30:42;;;;;;;18.05;4.90;;;10.30;99.90;;;;;;4836569;29;20050;-86
2023/12/24 08:33:07;;;;;;;22.67;5.32;;;10.40;99.90;;;;;;4836503;29;20049;-87
2023/12/24 08:35:33;;;;;;;15.52;4.63;;;10.70;99.90;;;;;;4836095;29;20068;-86
2023/12/24 08:37:59;;;;;;;16.88;4.50;;;11.40;99.90;;;;;;4835731;29;20129;-85
2023/12/24 08:40:28;;;;;;;18.70;4.32;;;;;;;;;;4836653;29;20053;-85
2023/12/24 08:42:55;;;;;;;21.23;4.88;;;;;;;;;;4835586;29;20058;-85
2023/12/24 08:45:22;;;;;;;19.20;5.20;;;;;;;;;;4835668;29;20097;-85
2023/12/24 08:47:48;;;;;;;19.75;4.07;;;;;;;;;;4836403;29;20057;-86
2023/12/24 08:50:14;;;;;;;18.77;4.90;;;;;;;;;;4836291;29;20045;-84
2023/12/24 08:52:40;;;;;;;17.75;4.30;;;;;;;;;;4835228;29;20125;-86
2023/12/24 08:55:07;;;;;;;23.38;5.78;;;;;;;;;;4835821;29;20473;-84
2023/12/24 08:57:33;;;;;;;16.02;4.82;;;;;;;;;;4835989;29;20050;-86
2023/12/24 08:59:59;;;;;;;17.85;4.40;;;;;;;;;;4835851;29;20114;-86
2023/12/24 09:02:25;;;;;;;17.75;4.78;;;;;;;;;;4835876;29;20054;-86
2023/12/24 09:04:50;;;;;;;17.65;4.32;;;;;;;;;;4835780;29;20050;-84
2023/12/24 09:07:17;;;;;;;10.07;3.65;;;;;;;;;;4821152;29;20061;-85
2023/12/24 09:09:43;;;;;;;11.85;3.67;;;;;;;;;;4855336;29;20053;-84
2023/12/24 09:12:10;;;;;;;13.90;3.75;;;;;;;;;;4854852;29;20057;-84
2023/12/24 09:14:36;;;;;;;16.48;4.05;;;;;;;;;;4853836;29;20061;-84
2023/12/24 09:17:02;;;;;;;20.35;4.10;;;;;;;;;;4821059;29;20085;-85
2023/12/24 09:19:28;;;;;;;13.60;4.22;;;;;;;;;;4820970;29;20108;-85
2023/12/24 09:21:54;;;;;;;16.83;3.97;;;;;;;;;;4820538;29;20425;-85
2023/12/24 09:24:20;;;;;;;14.93;4.30;;;;;;;;;;4820655;29;20058;-85
2023/12/24 09:26:46;;;;;;;14.80;4.43;;;;;;;;;;4821309;29;20065;-85
2023/12/24 09:29:12;;;;;;;15.07;3.60;;;;;;;;;;4821488;29;20050;-83
2023/12/24 09:31:39;;;;;;;13.88;4.00;;;;;;;;;;4838899;29;20125;-85
2023/12/24 09:34:06;;;;;;;17.10;4.38;;;;;;;;;;4838330;29;20148;-87
2023/12/24 09:36:32;;;;;;;18.10;4.88;;;;;;;;;;4854702;29;20148;-85
2023/12/24 09:38:58;;;;;;;15.95;3.88;;;;;;;;;;4837811;29;20198;-83
2023/12/24 09:41:23;;;;;;;15.43;4.43;;;;;;;;;;4836674;29;20057;-84
2023/12/24 09:43:50;;;;;;;15.88;4.13;;;;;;;;;;4842991;29;20049;-84
2023/12/24 09:46:16;;;;;;;15.23;4.43;;;;;;;;;;4839035;29;20050;-82
2023/12/24 09:48:42;;;;;;;17.08;4.32;;;;;;;;;;4838127;29;20110;-83
2023/12/24 09:51:08;;;;;;;18.40;3.80;;;;;;;;;;4838669;29;20065;-81
2023/12/24 09:53:34;;;;;;;14.00;3.78;;;;;;;;;;4838984;29;20144;-82
2023/12/24 09:56:00;;;;;;;10.25;3.47;;;;;;;;;;4839021;29;20089;-82
2023/12/24 09:58:26;;;;;;;13.00;3.08;;;;;;;;;;4839084;29;20050;-83
2023/12/24 10:00:52;;;;;;;12.13;3.80;;;;;;;;;;4839289;29;20806;-84
2023/12/24 10:03:18;;;;;;;11.25;3.40;;;;;;;;;;4838373;29;20060;-84
2023/12/24 10:06:02;;;;;;;14.63;3.58;;;;;;;;;;4838960;29;20049;-83
2023/12/24 10:08:28;;;;;;;12.23;3.40;;;;;;;;;;4838826;29;20412;-84
2023/12/24 10:10:54;;;;;;;12.80;3.55;;;;;;;;;;4837635;29;20148;-84
2023/12/24 10:13:21;;;;;;;11.73;3.28;;;;;;;;;;4839712;29;20061;-83
2023/12/24 10:15:47;;;;;;;10.45;3.10;;;;;;;;;;4839255;29;20078;-84
2023/12/24 10:18:17;;;;;;;9.65;2.95;;;;;;;;;;4838543;29;20042;-84
2023/12/24 10:20:43;;;;;;;9.75;3.05;;;;;;;;;;4832340;29;20118;-87
2023/12/24 10:23:09;;;;;;;10.98;2.55;;;;;;;;;;4819803;29;20062;-87
2023/12/24 10:25:35;;;;;;;15.68;3.10;;;;;;;;;;4827203;29;20053;-88
2023/12/24 10:28:08;;;;;;;10.93;2.58;;;;;;;;;;4838349;29;20050;-86
2023/12/24 10:30:35;;;;;;;13.02;2.50;;;;;;;;;;4838590;29;20102;-86
2023/12/24 10:33:08;;;;;;;16.38;3.50;;;;;;;;;;4838143;29;20124;-86
2023/12/24 10:35:35;;;;;;;12.35;2.95;;;;;;;;;;4844068;29;20094;-86
2023/12/24 10:38:13;;;;;;;8.98;2.50;;;;;;;;;;4856118;29;20057;-87
2023/12/24 10:40:39;;;;;;;12.48;2.88;;;;;;;;;;4846845;29;20082;-87
2023/12/24 10:43:05;;;;;;;8.60;2.83;;;;;;;;;;4837608;29;20548;-86
2023/12/24 10:45:31;;;;;;;8.35;2.22;;;;;;;;;;4820739;29;20132;-85
2023/12/24 10:47:57;;;;;;;11.55;3.15;;;;;;;;;;4819899;29;20520;-87
2023/12/24 10:50:23;;;;;;;9.70;2.63;;;;;;;;;;4820008;29;20506;-85
2023/12/24 10:52:49;;;;;;;7.95;2.85;;;;;;;;;;4819990;29;20062;-86
2023/12/24 10:55:16;;;;;;;12.25;2.70;;;;;;;;;;4819560;29;20081;-85
2023/12/24 10:57:42;;;;;;;13.73;2.90;;;;;;;;;;4834630;29;20125;-86
2023/12/24 11:00:15;;;;;;;15.80;2.72;;;;;;;;;;4838002;29;20081;-85
2023/12/24 11:02:46;;;;;;;12.02;2.95;;;;;;;;;;4837685;29;20187;-89
2023/12/24 11:05:12;;;;;;;11.70;2.67;;;;;;;;;;4822283;29;20058;-87
2023/12/24 11:07:40;;;;;;;10.45;2.90;;;;;;;;;;4852692;29;20154;-85
2023/12/24 11:10:06;;;;;;;13.40;2.60;;;;;;;;;;4853219;29;20053;-85
2023/12/24 11:12:33;;;;;;;11.38;2.40;;;;;;;;;;4822669;29;20077;-84
2023/12/24 11:15:00;;;;;;;11.85;2.45;;;;;;;;;;4837837;29;20136;-82
2023/12/24 11:17:36;;;;;;;13.63;3.35;;;;;;;;;;4837751;29;20045;-84
2023/12/24 11:20:20;;;;;;;8.82;2.20;;;;;;;;;;4854137;29;20061;-83
2023/12/24 11:23:06;;;;;;;9.30;2.45;;;;;;;;;;4823261;29;20058;-84
2023/12/24 11:25:40;;;;;;;11.63;2.55;;;;;;;;;;4825326;29;20042;-84
2023/12/24 11:28:06;;;;;;;10.70;2.75;;;;;;;;;;4819718;29;20054;-82
2023/12/24 11:30:51;;;;;;;13.82;2.42;;;;;;;;;;4831712;29;20054;-84
2023/12/24 11:33:29;;;;;;;11.18;3.00;;;;;;;;;;4837711;29;20066;-85
2023/12/24 11:35:56;;;;;;;9.68;2.33;;;;;;;;;;4836443;29;20061;-86
2023/12/24 11:38:34;;;;;;;10.90;2.65;;;;;;;;;;4834877;29;20136;-85
2023/12/24 11:41:28;;;;;;;11.77;2.80;;;;;;;;;;4836661;29;20129;-84
2023/12/24 11:43:59;;;;;;;9.05;2.15;;;;;;;;;;4835549;29;20425;-85
2023/12/24 11:46:26;;;;;;;9.63;2.40;;;;;;;;;;4837769;29;20050;-85
2023/12/24 11:48:53;;;;;;;8.10;2.13;;;;;;;;;;4835860;29;20042;-83
2023/12/24 11:51:23;;;;;;;11.13;2.03;;;;;;;;;;4837524;29;20076;-84
2023/12/24 11:53:57;;;;;;;7.30;2.50;;;;;;;;;;4836957;29;20714;-85
2023/12/24 11:56:23;;;;;;;7.32;2.50;;;;;;;;;;4835635;29;20061;-83
2023/12/24 11:58:49;;;;;;;10.13;2.65;;;;;;;;;;4837263;29;20456;-82
2023/12/24 12:01:24;;;;;;;12.40;2.50;;;;;;;;;;4836556;29;20096;-84
2023/12/24 12:03:54;;;;;;;10.57;2.78;;;;;;;;;;4836900;29;20109;-81
2023/12/24 12:06:20;;;;;;;8.75;2.22;;;;;;;;;;4837031;29;20501;-82
2023/12/24 12:08:46;;;;;;;7.75;2.22;;;;;;;;;;4837740;29;20509;-82
2023/12/24 12:11:12;;;;;;;9.98;2.72;;;;;;;;;;4852090;29;20405;-81
2023/12/24 12:13:38;;;;;;;10.05;2.67;;;;;;;;;;4851794;29;20113;-82
2023/12/24 12:16:04;;;;;;;9.82;2.95;;;;;;;;;;4840186;29;20054;-81
2023/12/24 12:18:30;;;;;;;7.90;2.55;;;;;;;;;;4818374;29;20046;-82
2023/12/24 12:20:56;;;;;;;8.07;2.28;;;;;;;;;;4818495;29;20073;-82
2023/12/24 12:23:22;;;;;;;9.85;2.85;;;;;;;;;;4817656;29;20065;-81
2023/12/24 12:25:48;;;;;;;9.48;3.30;;;;;;;;;;4827971;29;20413;-82
2023/12/24 12:28:15;;;;;;;12.82;2.67;;;;;;;;;;4836216;29;20530;-82
2023/12/24 12:30:41;;;;;;;7.60;2.38;;;;;;;;;;4837600;29;20444;-82
2023/12/24 12:33:07;;;;;;;11.85;2.75;;;;;;;;;;4835754;29;20527;-82
2023/12/24 12:35:34;;;;;;;9.48;2.63;;;;;;;;;;4836527;29;20505;-82
2023/12/24 12:38:00;;;;;;;11.10;2.53;;;;;;;;;;4831364;29;20073;-82
2023/12/24 12:40:26;;;;;;;7.40;2.72;;;;;;;;;;4836734;29;20126;-83
2023/12/24 12:42:53;;;;;;;6.03;2.28;;;;;;;;;;4835900;29;20130;-83
2023/12/24 12:45:19;;;;;;;8.80;2.38;;;;;;;;;;4806019;29;20144;-82
2023/12/24 12:47:45;;;;;;;11.45;2.72;;;;;;;;;;4836631;29;20073;-83
2023/12/24 12:50:11;;;;;;;11.73;2.63;;;;;;;;;;4836055;29;20125;-81
2023/12/24 12:52:37;;;;;;;14.18;3.28;;;;;;;;;;4833260;29;20218;-83
2023/12/24 12:55:07;;;;;;;9.52;2.63;;;;;;;;;;4825102;29;20542;-81
2023/12/24 12:57:36;;;;;;;7.50;2.60;;;;;;;;;;4847091;29;20053;-83
2023/12/24 13:00:22;;;;;;;9.18;2.78;;;;;;;;;;4836381;29;20045;-83
2023/12/24 13:02:48;;;;;;;11.07;3.33;;;;;;;;;;4835885;29;20061;-83
2023/12/24 13:05:31;;;;;;;15.40;3.65;;;;;;;;;;4836267;29;20058;-83
2023/12/24 13:07:57;;;;;;;11.82;3.42;;;;;;;;;;4835626;29;20085;-83
2023/12/24 13:10:28;;;;;;;11.32;3.47;;;;;;;;;;4835938;29;20102;-82
2023/12/24 13:13:17;;;;;;;10.40;3.53;;;;;;;;;;4834647;29;20050;-83
2023/12/24 13:15:45;;;;;;;18.13;4.22;;;;;;;;;;4835472;29;20062;-82
2023/12/24 13:18:15;;;;;;;12.30;3.35;;;;;;;;;;4835324;29;20053;-83
2023/12/24 13:20:47;;;;;;;16.48;3.75;;;;;;;;;;4836100;29;20050;-83